KLUK/LUK METAR and TAF weather

Enter ICAO airport designator
Station Type Date Time Source
KLUK METAR 2021/06/22 22:53 UTC NOAA

KLUK 222253Z 30007KT 260V340 10SM FEW075 21/05 A3003 RMK AO2 SLP166 T02110050


Station Type Date Time Source
KLUK Decoded METAR 2021/06/22 22:53 UTC NOAA

CINCINNATI MUN LUNKEN FLD, OH, United States (KLUK) 39-06N 84-25W 155M
Jun 22, 2021 - 06:53 PM EDT / 2021.06.22 2253 UTC
Wind: from the WNW (300 degrees) at 8 MPH (7 KT) (direction variable):0
Visibility: 10 mile(s):0
Sky conditions: mostly clear
Temperature: 70.0 F (21.1 C)
Dew Point: 41.0 F (5.0 C)
Relative Humidity: 34%
Pressure (altimeter): 30.03 in. Hg (1016 hPa)
ob: KLUK 222253Z 30007KT 260V340 10SM FEW075 21/05 A3003 RMK AO2 SLP166 T02110050
cycle: 23

Station Type Date Time Source
KLUK TAF 2021/06/22 21:58 UTC NOAA

TAF
AMD KLUK 222058Z 2221/2318 VRB03KT P6SM SKC
TEMPO 2308/2312 00000KT 4SM BR
FM231200 15005KT P6SM FEW250

Example: see airport list